Terminal Aerodrome Forecast
Issued by NWS Jackson, MS

Home | Current Version | Previous Version | Text Only | Print | Product List | Glossary On
Versions: 1 2 3 4 5 6 7 8 9 10 11 12 13 14 15 16 17 18 19 20 21
496
FTUS44 KJAN 170605 AAA
TAFGLH
TAF AMD
KGLH 170605Z 1706/1806 17014KT P6SM OVC019
     FM171000 21007KT P6SM VCSH BKN010 OVC015
     FM171300 25006KT 5SM -RA BR BKN010 OVC015
     FM171600 32007KT 3SM -RA BR OVC010
     FM172100 35005KT P6SM VCSH SCT008 OVC015
     FM180000 02004KT 4SM BR OVC010=

USA.gov is the U.S. government's official web portal to all federal, state and local government web resources and services.